createdAt,value
2022-12-16T00:01:27.766Z,74.46
2022-12-16T00:03:56.580Z,74.45
2022-12-16T00:06:25.709Z,74.50
2022-12-16T00:08:52.982Z,73.93
2022-12-16T00:11:27.441Z,74.31
2022-12-16T00:13:54.998Z,74.01
2022-12-16T00:16:21.999Z,74.35
2022-12-16T00:18:48.913Z,74.10
2022-12-16T00:21:18.631Z,74.45
2022-12-16T00:23:45.526Z,73.88
2022-12-16T00:26:12.644Z,74.05
2022-12-16T00:28:40.600Z,74.07
2022-12-16T00:31:07.732Z,73.92
2022-12-16T00:33:34.895Z,74.42
2022-12-16T00:36:01.982Z,74.18
2022-12-16T00:38:28.667Z,73.68
2022-12-16T00:40:55.499Z,73.83
2022-12-16T00:43:22.611Z,74.11
2022-12-16T00:45:49.636Z,74.16
2022-12-16T00:48:18.811Z,74.17
2022-12-16T00:50:55.267Z,73.83
2022-12-16T00:53:23.684Z,73.76
2022-12-16T00:55:50.500Z,74.34
2022-12-16T00:58:17.330Z,73.84
2022-12-16T01:00:44.064Z,73.55
2022-12-16T01:03:13.252Z,73.83
2022-12-16T01:05:42.232Z,73.20
2022-12-16T01:08:08.997Z,73.62
2022-12-16T01:10:35.715Z,73.99
2022-12-16T01:13:02.278Z,73.52
2022-12-16T01:15:28.824Z,73.69
2022-12-16T01:17:55.519Z,73.40
2022-12-16T01:20:22.069Z,72.47
2022-12-16T01:22:48.818Z,72.66
2022-12-16T01:25:15.541Z,72.50
2022-12-16T01:27:42.198Z,72.54
2022-12-16T01:30:09.709Z,72.84
2022-12-16T01:32:37.051Z,72.26
2022-12-16T01:35:10.686Z,72.26
2022-12-16T01:37:45.231Z,72.75
2022-12-16T01:40:20.090Z,73.03
2022-12-16T01:42:47.156Z,73.41
2022-12-16T01:45:30.776Z,73.78
2022-12-16T01:48:01.465Z,73.28
2022-12-16T01:50:29.184Z,73.28
2022-12-16T01:53:00.021Z,72.29
2022-12-16T01:55:41.779Z,71.94
2022-12-16T01:58:20.256Z,71.69
2022-12-16T02:00:46.974Z,71.56
2022-12-16T02:03:13.939Z,71.00
2022-12-16T02:05:42.740Z,71.56
2022-12-16T02:08:09.341Z,71.23
2022-12-16T02:10:42.205Z,70.87
2022-12-16T02:13:34.126Z,70.64
2022-12-16T02:16:17.443Z,72.09
2022-12-16T02:18:59.409Z,72.65
2022-12-16T02:21:47.265Z,72.96
2022-12-16T02:24:52.997Z,72.99
2022-12-16T02:27:27.633Z,73.60
2022-12-16T02:30:32.092Z,73.98
2022-12-16T02:33:18.625Z,73.22
2022-12-16T02:35:55.581Z,72.30
2022-12-16T02:38:32.467Z,72.23
2022-12-16T02:41:09.645Z,72.83
2022-12-16T02:43:51.727Z,72.95
2022-12-16T02:46:23.876Z,72.04
2022-12-16T02:48:50.498Z,72.40
2022-12-16T02:51:18.041Z,72.84
2022-12-16T02:53:46.787Z,71.85
2022-12-16T02:56:36.554Z,71.30
2022-12-16T02:59:37.113Z,70.76
2022-12-16T03:02:16.157Z,70.87
2022-12-16T03:04:49.791Z,71.63
2022-12-16T03:07:21.587Z,70.66
2022-12-16T03:09:50.187Z,71.00
2022-12-16T03:12:20.000Z,71.84
2022-12-16T03:14:50.320Z,72.29
2022-12-16T03:17:18.733Z,72.26
2022-12-16T03:19:53.340Z,72.61
2022-12-16T03:22:28.263Z,71.97
2022-12-16T03:24:55.841Z,71.79
2022-12-16T03:27:46.848Z,71.04
2022-12-16T03:30:19.163Z,70.86
2022-12-16T03:32:58.170Z,71.06
2022-12-16T03:35:37.291Z,71.95
2022-12-16T03:38:07.883Z,71.59
2022-12-16T03:40:35.443Z,70.25
2022-12-16T03:43:03.440Z,70.37
2022-12-16T03:45:38.623Z,70.04
2022-12-16T03:48:08.589Z,69.92
2022-12-16T03:50:36.147Z,70.81
2022-12-16T03:53:05.894Z,70.49
2022-12-16T03:55:33.049Z,70.45
2022-12-16T03:57:59.727Z,70.00
2022-12-16T04:00:27.032Z,70.17
2022-12-16T04:02:53.928Z,69.96
2022-12-16T04:05:20.952Z,70.44
2022-12-16T04:07:47.587Z,70.92
2022-12-16T04:10:14.175Z,71.86
2022-12-16T04:12:59.545Z,70.60
2022-12-16T04:15:44.783Z,70.58
2022-12-16T04:18:37.319Z,69.54
2022-12-16T04:21:23.283Z,68.43
2022-12-16T04:24:13.802Z,69.37
2022-12-16T04:26:58.928Z,69.77
2022-12-16T04:29:25.552Z,68.69
2022-12-16T04:31:53.190Z,68.35
2022-12-16T04:34:29.250Z,67.82
2022-12-16T04:37:19.742Z,67.36
2022-12-16T04:40:05.638Z,68.40
2022-12-16T04:42:51.354Z,69.25
2022-12-16T04:45:37.050Z,69.59
2022-12-16T04:48:23.108Z,69.47
2022-12-16T04:51:08.347Z,68.19
2022-12-16T04:53:54.078Z,68.53
2022-12-16T04:56:41.791Z,68.96
2022-12-16T04:59:27.083Z,68.01
2022-12-16T05:02:12.302Z,68.85
2022-12-16T05:05:02.129Z,68.55
2022-12-16T05:07:47.406Z,69.04
2022-12-16T05:10:32.766Z,68.84
2022-12-16T05:13:17.828Z,69.42
2022-12-16T05:16:03.243Z,69.67
2022-12-16T05:18:48.507Z,69.58
2022-12-16T05:21:33.954Z,68.50
2022-12-16T05:24:19.107Z,68.40
2022-12-16T05:27:04.504Z,68.93
2022-12-16T05:29:50.047Z,68.89
2022-12-16T05:32:35.368Z,68.83
2022-12-16T05:35:20.766Z,68.43
2022-12-16T05:38:06.092Z,68.21
2022-12-16T05:40:51.381Z,67.93
2022-12-16T05:43:36.948Z,90.18
2022-12-16T05:46:39.253Z,100.00
2022-12-16T05:49:32.374Z,100.00
2022-12-16T05:52:18.022Z,94.05
2022-12-16T05:55:03.414Z,84.82
2022-12-16T05:57:48.925Z,56.09
2022-12-16T06:00:34.495Z,51.28
2022-12-16T06:03:21.252Z,53.82
2022-12-16T06:06:06.846Z,56.17
2022-12-16T06:08:52.164Z,58.74
2022-12-16T06:11:37.267Z,60.37
2022-12-16T06:14:22.796Z,60.08
2022-12-16T06:17:10.826Z,60.94
2022-12-16T06:19:56.408Z,61.48
2022-12-16T06:22:42.003Z,62.31
2022-12-16T06:25:27.196Z,63.04
2022-12-16T06:28:12.681Z,64.26
2022-12-16T06:30:58.156Z,64.31
2022-12-16T06:33:43.431Z,64.86
2022-12-16T06:36:35.784Z,65.13
2022-12-16T06:39:21.435Z,65.21
2022-12-16T06:42:07.005Z,64.96
2022-12-16T06:44:52.436Z,64.92
2022-12-16T06:47:37.605Z,65.25
2022-12-16T06:50:30.546Z,64.97
2022-12-16T06:53:15.853Z,65.24
2022-12-16T06:56:01.367Z,65.60
2022-12-16T06:58:46.857Z,65.48
2022-12-16T07:01:32.574Z,66.91
2022-12-16T07:04:18.007Z,67.62
2022-12-16T07:07:03.404Z,66.23
2022-12-16T07:09:48.893Z,67.18
2022-12-16T07:12:34.402Z,68.01
2022-12-16T07:15:19.764Z,67.90
2022-12-16T07:18:07.276Z,67.04
2022-12-16T07:20:52.482Z,66.78
2022-12-16T07:23:40.497Z,66.53
2022-12-16T07:26:25.861Z,65.66
2022-12-16T07:29:11.351Z,65.02
2022-12-16T07:31:56.903Z,65.17
2022-12-16T07:34:47.129Z,65.88
2022-12-16T07:37:35.121Z,66.51
2022-12-16T07:40:20.436Z,66.54
2022-12-16T07:43:06.198Z,66.86
2022-12-16T07:45:51.761Z,68.15
2022-12-16T07:48:38.118Z,68.03
2022-12-16T07:51:23.429Z,67.53
2022-12-16T07:54:08.887Z,66.99
2022-12-16T07:56:54.476Z,66.17
2022-12-16T07:59:39.893Z,66.19
2022-12-16T08:02:28.532Z,66.61
2022-12-16T08:05:13.832Z,67.37
2022-12-16T08:08:00.286Z,66.46
2022-12-16T08:10:46.075Z,65.52
2022-12-16T08:13:31.465Z,66.24
2022-12-16T08:16:17.052Z,65.90
2022-12-16T08:19:07.558Z,64.32
2022-12-16T08:21:56.360Z,64.43
2022-12-16T08:24:41.770Z,64.20
2022-12-16T08:27:27.275Z,63.39
2022-12-16T08:30:26.428Z,62.99
2022-12-16T08:33:18.832Z,62.38
2022-12-16T08:36:05.629Z,61.49
2022-12-16T08:38:51.601Z,60.18
2022-12-16T08:41:37.675Z,61.27
2022-12-16T08:44:23.704Z,60.99
2022-12-16T08:47:09.041Z,60.61
2022-12-16T08:49:57.702Z,60.86
2022-12-16T08:52:47.869Z,60.25
2022-12-16T08:55:33.212Z,59.50
2022-12-16T08:58:18.711Z,59.30
2022-12-16T09:01:07.553Z,58.40
2022-12-16T09:03:54.745Z,57.56
2022-12-16T09:06:41.216Z,58.31
2022-12-16T09:09:28.151Z,57.39
2022-12-16T09:12:13.535Z,57.35
2022-12-16T09:14:58.945Z,58.07
2022-12-16T09:17:44.324Z,57.72
2022-12-16T09:20:30.442Z,57.20
2022-12-16T09:23:20.104Z,57.19
2022-12-16T09:26:10.062Z,57.32
2022-12-16T09:28:55.631Z,57.35
2022-12-16T09:31:41.334Z,56.53
2022-12-16T09:34:26.744Z,56.32
2022-12-16T09:37:14.809Z,58.01
2022-12-16T09:40:00.164Z,57.65
2022-12-16T09:42:58.827Z,57.07
2022-12-16T09:46:11.693Z,57.61
2022-12-16T09:49:20.520Z,57.81
2022-12-16T09:52:06.783Z,58.18
2022-12-16T09:54:55.894Z,58.00
2022-12-16T09:57:43.330Z,58.24
2022-12-16T10:00:58.900Z,57.66
2022-12-16T10:03:55.007Z,58.59
2022-12-16T10:06:51.474Z,60.48
2022-12-16T10:09:48.594Z,59.47
2022-12-16T10:12:51.377Z,58.86
2022-12-16T10:15:50.339Z,58.57
2022-12-16T10:18:47.557Z,58.32
2022-12-16T10:21:40.029Z,58.70
2022-12-16T10:24:50.611Z,58.95
2022-12-16T10:27:45.766Z,58.93
2022-12-16T10:30:33.269Z,58.95
2022-12-16T10:33:18.850Z,59.38
2022-12-16T10:36:12.551Z,59.29
2022-12-16T10:39:00.804Z,59.48
2022-12-16T10:41:51.354Z,59.42
2022-12-16T10:44:53.948Z,60.09
2022-12-16T10:47:41.175Z,60.53
2022-12-16T10:50:32.101Z,60.71
2022-12-16T10:53:24.051Z,60.87
2022-12-16T10:56:37.156Z,61.34
2022-12-16T10:59:25.386Z,61.82
2022-12-16T11:02:20.075Z,62.42
2022-12-16T11:05:06.808Z,62.93
2022-12-16T11:08:09.498Z,62.98
2022-12-16T11:11:00.715Z,63.10
2022-12-16T11:13:54.819Z,63.18
2022-12-16T11:16:45.474Z,63.38
2022-12-16T11:19:43.980Z,63.31
2022-12-16T11:22:32.336Z,63.66
2022-12-16T11:25:40.905Z,62.86
2022-12-16T11:28:32.013Z,63.21
2022-12-16T11:31:22.135Z,63.80
2022-12-16T11:34:08.996Z,63.54
2022-12-16T11:36:57.678Z,64.16
2022-12-16T11:39:45.996Z,64.09
2022-12-16T11:42:39.158Z,65.04
2022-12-16T11:45:33.076Z,64.93
2022-12-16T11:48:35.862Z,64.80
2022-12-16T11:51:30.740Z,64.50
2022-12-16T11:54:33.934Z,64.67
2022-12-16T11:57:23.559Z,65.81
2022-12-16T12:00:19.064Z,65.43
2022-12-16T12:03:17.725Z,65.19
2022-12-16T12:06:17.396Z,66.10
2022-12-16T12:09:18.247Z,66.99
2022-12-16T12:12:09.195Z,67.39
2022-12-16T12:15:09.607Z,67.53
2022-12-16T12:18:21.502Z,67.45
2022-12-16T12:21:50.297Z,67.99
2022-12-16T12:24:42.303Z,68.71
2022-12-16T12:27:52.836Z,69.22
2022-12-16T12:30:39.804Z,69.13
2022-12-16T12:33:52.251Z,68.74
2022-12-16T12:37:00.679Z,68.61
2022-12-16T12:39:59.261Z,68.46
2022-12-16T12:43:04.070Z,68.07
2022-12-16T12:46:10.815Z,66.78
2022-12-16T12:49:07.045Z,66.95
2022-12-16T12:55:52.051Z,65.96
2022-12-16T12:58:39.019Z,65.99
2022-12-16T13:01:27.070Z,65.08
2022-12-16T13:04:23.580Z,65.48
2022-12-16T13:07:13.758Z,65.86
2022-12-16T13:09:59.377Z,65.43
2022-12-16T13:12:52.443Z,65.21
2022-12-16T13:15:37.732Z,65.16
2022-12-16T13:18:23.203Z,64.93
2022-12-16T13:21:14.600Z,63.81
2022-12-16T13:24:04.140Z,63.40
2022-12-16T13:26:53.218Z,63.48
2022-12-16T13:29:50.112Z,63.48
2022-12-16T13:32:44.751Z,63.67
2022-12-16T13:35:35.772Z,63.46
2022-12-16T13:38:39.360Z,64.05
2022-12-16T13:41:46.013Z,62.59
2022-12-16T13:44:53.643Z,63.76
2022-12-16T13:47:53.431Z,62.17
2022-12-16T13:51:25.526Z,62.88
2022-12-16T13:54:26.365Z,62.24
2022-12-16T13:57:12.008Z,62.55
2022-12-16T14:00:00.737Z,62.62
2022-12-16T14:02:52.287Z,62.69
2022-12-16T14:05:49.020Z,62.75
2022-12-16T14:08:36.836Z,62.54
2022-12-16T14:11:36.036Z,62.78
2022-12-16T14:14:37.941Z,62.46
2022-12-16T14:17:34.057Z,60.88
2022-12-16T14:20:39.011Z,61.99
2022-12-16T14:24:06.752Z,62.63
2022-12-16T14:27:05.165Z,62.65
2022-12-16T14:37:20.796Z,62.39
2022-12-16T14:40:15.281Z,62.46
2022-12-16T14:43:01.925Z,62.87
2022-12-16T14:45:53.753Z,62.33
2022-12-16T14:48:55.508Z,63.32
2022-12-16T14:51:49.518Z,62.43
2022-12-16T14:54:58.251Z,62.84
2022-12-16T14:57:54.718Z,62.79
2022-12-16T15:00:43.663Z,62.53
2022-12-16T15:03:35.839Z,62.88
2022-12-16T15:06:27.928Z,62.50
2022-12-16T15:09:19.025Z,63.26
2022-12-16T15:12:06.613Z,63.06
2022-12-16T15:14:55.158Z,63.44
2022-12-16T15:18:12.995Z,63.44
2022-12-16T15:21:12.968Z,64.11
2022-12-16T15:24:01.686Z,63.56
2022-12-16T15:26:50.495Z,64.36
2022-12-16T15:29:51.144Z,64.05
2022-12-16T15:32:46.062Z,64.37
2022-12-16T15:35:55.071Z,65.14
2022-12-16T15:38:48.464Z,65.81
2022-12-16T15:41:48.929Z,66.58
2022-12-16T15:44:36.408Z,67.17
2022-12-16T15:47:53.090Z,66.95
2022-12-16T15:50:42.493Z,67.55
2022-12-16T15:53:56.631Z,67.40
2022-12-16T15:56:45.138Z,68.02
2022-12-16T15:59:49.068Z,67.94
2022-12-16T16:02:41.597Z,68.37
2022-12-16T16:05:37.828Z,68.17
2022-12-16T16:08:23.696Z,68.12
2022-12-16T16:11:09.021Z,68.97
2022-12-16T16:14:14.964Z,69.44
2022-12-16T16:17:01.957Z,69.48
2022-12-16T16:19:47.930Z,69.60
2022-12-16T16:22:35.717Z,69.62
2022-12-16T16:25:21.690Z,69.84
2022-12-16T16:28:07.392Z,69.42
2022-12-16T16:30:52.603Z,68.90
2022-12-16T16:33:39.908Z,70.29
2022-12-16T16:36:34.029Z,70.83
2022-12-16T16:39:27.567Z,70.52
2022-12-16T16:42:13.846Z,70.47
2022-12-16T16:44:59.091Z,70.25
2022-12-16T16:47:47.956Z,71.29
2022-12-16T16:50:33.788Z,71.46
2022-12-16T16:53:19.443Z,71.97
2022-12-16T16:56:06.405Z,71.44
2022-12-16T16:58:53.299Z,71.04
2022-12-16T17:01:38.752Z,71.07
2022-12-16T17:04:24.682Z,71.63
2022-12-16T17:07:10.375Z,72.16
2022-12-16T17:09:56.284Z,72.45
2022-12-16T17:12:44.578Z,71.53
2022-12-16T17:15:58.112Z,71.12
2022-12-16T17:18:48.987Z,70.58
2022-12-16T17:21:37.466Z,71.09
2022-12-16T17:24:23.198Z,71.10
2022-12-16T17:27:08.515Z,72.30
2022-12-16T17:29:53.935Z,72.36
2022-12-16T17:32:39.262Z,72.20
2022-12-16T17:35:24.757Z,71.95
2022-12-16T17:38:10.372Z,71.97
2022-12-16T17:40:57.265Z,72.41
2022-12-16T17:43:42.763Z,72.49
2022-12-16T17:46:30.371Z,72.59
2022-12-16T17:49:18.306Z,73.08
2022-12-16T17:52:03.746Z,72.59
2022-12-16T17:55:00.230Z,72.30
2022-12-16T17:57:45.592Z,72.10
2022-12-16T18:00:31.927Z,73.06
2022-12-16T18:03:17.572Z,73.72
2022-12-16T18:06:04.172Z,73.10
2022-12-16T18:08:51.074Z,72.24
2022-12-16T18:11:38.857Z,71.99
2022-12-16T18:14:28.040Z,71.17
2022-12-16T18:17:16.329Z,70.84
2022-12-16T18:20:01.671Z,70.51
2022-12-16T18:22:46.924Z,70.84
2022-12-16T18:25:32.025Z,72.10
2022-12-16T18:28:17.573Z,72.06
2022-12-16T18:31:41.101Z,71.09
2022-12-16T18:34:27.173Z,71.01
2022-12-16T18:37:12.518Z,72.12
2022-12-16T18:39:57.902Z,71.50
2022-12-16T18:42:43.375Z,71.51
2022-12-16T18:45:28.801Z,72.18
2022-12-16T18:48:14.225Z,71.32
2022-12-16T18:50:59.588Z,71.13
2022-12-16T18:53:45.097Z,72.24
2022-12-16T18:56:30.447Z,72.40
2022-12-16T18:59:17.525Z,73.41
2022-12-16T19:02:03.560Z,72.79
2022-12-16T19:04:49.906Z,72.21
2022-12-16T19:07:35.116Z,72.09
2022-12-16T19:10:20.983Z,71.49
2022-12-16T19:13:06.266Z,72.42
2022-12-16T19:15:52.025Z,72.00
2022-12-16T19:18:37.715Z,71.30
2022-12-16T19:21:23.211Z,71.07
2022-12-16T19:24:09.368Z,71.12
2022-12-16T19:30:00.223Z,70.99
2022-12-16T19:32:45.963Z,71.65
2022-12-16T19:35:31.341Z,73.01
2022-12-16T19:38:17.068Z,73.24
2022-12-16T19:41:12.751Z,72.10
2022-12-16T19:44:05.448Z,71.18
2022-12-16T19:46:59.685Z,70.85
2022-12-16T19:49:45.096Z,71.04
2022-12-16T19:52:30.946Z,71.21
2022-12-16T19:58:21.570Z,70.91
2022-12-16T20:01:07.467Z,69.52
2022-12-16T20:03:55.150Z,71.47
2022-12-16T20:06:42.209Z,71.59
2022-12-16T20:09:27.844Z,72.03
2022-12-16T20:12:13.097Z,70.30
2022-12-16T20:14:59.507Z,69.92
2022-12-16T20:17:44.696Z,70.36
2022-12-16T20:20:31.473Z,69.47
2022-12-16T20:23:16.752Z,69.04
2022-12-16T20:26:02.272Z,69.25
2022-12-16T20:28:47.478Z,70.56
2022-12-16T20:31:32.971Z,71.19
2022-12-16T20:34:18.464Z,70.13
2022-12-16T20:37:05.388Z,70.70
2022-12-16T20:39:56.725Z,70.54
2022-12-16T20:42:45.975Z,69.30
2022-12-16T20:45:31.258Z,70.73
2022-12-16T20:48:17.258Z,70.68
2022-12-16T20:51:02.789Z,69.53
2022-12-16T20:53:47.952Z,69.13
2022-12-16T20:56:33.271Z,68.71
2022-12-16T20:59:19.978Z,67.76
2022-12-16T21:02:25.051Z,68.46
2022-12-16T21:05:12.582Z,67.73
2022-12-16T21:07:57.746Z,68.56
2022-12-16T21:10:43.529Z,68.80
2022-12-16T21:13:32.969Z,69.02
2022-12-16T21:16:20.765Z,70.75
2022-12-16T21:19:06.134Z,70.29
2022-12-16T21:21:51.555Z,70.09
2022-12-16T21:24:37.113Z,69.31
2022-12-16T21:27:22.851Z,68.18
2022-12-16T21:30:07.968Z,68.39
2022-12-16T21:32:53.481Z,69.46
2022-12-16T21:35:39.103Z,70.59
2022-12-16T21:38:32.262Z,70.53
2022-12-16T21:41:17.381Z,69.61
2022-12-16T21:44:02.677Z,70.62
2022-12-16T21:46:47.830Z,71.31
2022-12-16T21:49:33.233Z,70.86
2022-12-16T21:52:18.918Z,69.82
2022-12-16T21:55:04.260Z,69.39
2022-12-16T21:57:49.605Z,68.97
2022-12-16T22:00:35.377Z,68.89
2022-12-16T22:03:21.083Z,69.40
2022-12-16T22:06:06.415Z,69.23
2022-12-16T22:08:51.884Z,69.35
2022-12-16T22:11:37.290Z,69.29
2022-12-16T22:14:22.683Z,70.88
2022-12-16T22:17:08.064Z,70.33
2022-12-16T22:19:53.428Z,69.90
2022-12-16T22:22:41.460Z,69.47
2022-12-16T22:25:26.952Z,69.43
2022-12-16T22:28:12.193Z,68.24
2022-12-16T22:31:05.105Z,67.48
2022-12-16T22:33:50.835Z,68.02
2022-12-16T22:36:20.446Z,69.78
2022-12-16T22:36:37.390Z,69.01
2022-12-16T22:39:22.844Z,68.88
2022-12-16T22:42:08.186Z,68.30
2022-12-16T22:44:53.515Z,67.87
2022-12-16T22:47:41.993Z,68.27
2022-12-16T22:50:27.441Z,68.48
2022-12-16T22:53:12.932Z,69.06
2022-12-16T22:56:01.918Z,69.06
2022-12-16T22:58:47.677Z,68.45
2022-12-16T23:01:33.129Z,67.30
2022-12-16T23:04:18.621Z,68.82
2022-12-16T23:07:04.110Z,69.56
2022-12-16T23:09:49.575Z,69.42
2022-12-16T23:12:34.869Z,69.74
2022-12-16T23:15:20.128Z,70.05
2022-12-16T23:18:05.523Z,70.36
2022-12-16T23:20:50.777Z,69.92
2022-12-16T23:23:37.792Z,69.50
2022-12-16T23:26:23.292Z,68.37
2022-12-16T23:29:12.759Z,67.17
2022-12-16T23:31:57.842Z,66.64
2022-12-16T23:34:46.088Z,67.09
2022-12-16T23:37:33.333Z,67.02
2022-12-16T23:40:18.512Z,67.69
2022-12-16T23:43:05.997Z,67.41
2022-12-16T23:45:51.979Z,67.05
2022-12-16T23:48:37.227Z,67.25
2022-12-16T23:51:22.523Z,66.79
2022-12-16T23:54:24.717Z,66.94
2022-12-16T23:57:10.364Z,66.96
2022-12-16T23:59:56.561Z,67.48
